sensor_id;sensor_type;location;lat;lon;timestamp;P1;durP1;ratioP1;P2;durP2;ratioP2
71351;SDS011;59159;51.652;4.864;2023-04-01T00:02:10;4.38;;;0.88;;
71351;SDS011;59159;51.652;4.864;2023-04-01T00:04:36;3.07;;;0.77;;
71351;SDS011;59159;51.652;4.864;2023-04-01T00:07:02;3.50;;;0.70;;
71351;SDS011;59159;51.652;4.864;2023-04-01T00:09:28;3.40;;;0.70;;
71351;SDS011;59159;51.652;4.864;2023-04-01T00:11:55;5.35;;;1.02;;
71351;SDS011;59159;51.652;4.864;2023-04-01T00:14:21;4.43;;;1.00;;
71351;SDS011;59159;51.652;4.864;2023-04-01T00:16:46;3.30;;;0.75;;
71351;SDS011;59159;51.652;4.864;2023-04-01T00:19:12;3.33;;;0.88;;
71351;SDS011;59159;51.652;4.864;2023-04-01T00:21:40;4.57;;;0.93;;
71351;SDS011;59159;51.652;4.864;2023-04-01T00:24:06;5.15;;;1.05;;
71351;SDS011;59159;51.652;4.864;2023-04-01T00:26:32;4.25;;;1.10;;
71351;SDS011;59159;51.652;4.864;2023-04-01T00:28:58;3.63;;;0.80;;
71351;SDS011;59159;51.652;4.864;2023-04-01T00:31:24;4.47;;;0.73;;
71351;SDS011;59159;51.652;4.864;2023-04-01T00:33:51;3.50;;;0.70;;
71351;SDS011;59159;51.652;4.864;2023-04-01T00:36:18;3.85;;;0.90;;
71351;SDS011;59159;51.652;4.864;2023-04-01T00:38:45;3.53;;;0.70;;
71351;SDS011;59159;51.652;4.864;2023-04-01T00:41:11;5.15;;;0.80;;
71351;SDS011;59159;51.652;4.864;2023-04-01T00:43:42;2.63;;;0.50;;
71351;SDS011;59159;51.652;4.864;2023-04-01T00:46:08;3.77;;;1.00;;
71351;SDS011;59159;51.652;4.864;2023-04-01T00:48:35;3.95;;;0.80;;
71351;SDS011;59159;51.652;4.864;2023-04-01T00:53:34;3.63;;;0.73;;
71351;SDS011;59159;51.652;4.864;2023-04-01T00:56:36;3.20;;;0.80;;
71351;SDS011;59159;51.652;4.864;2023-04-01T00:58:55;3.50;;;0.70;;
71351;SDS011;59159;51.652;4.864;2023-04-01T01:01:22;3.25;;;0.60;;
71351;SDS011;59159;51.652;4.864;2023-04-01T01:03:49;2.87;;;0.70;;
71351;SDS011;59159;51.652;4.864;2023-04-01T01:06:18;4.28;;;1.00;;
71351;SDS011;59159;51.652;4.864;2023-04-01T01:14:04;4.15;;;0.82;;
71351;SDS011;59159;51.652;4.864;2023-04-01T01:16:36;4.18;;;0.88;;
71351;SDS011;59159;51.652;4.864;2023-04-01T01:19:09;3.00;;;0.60;;
71351;SDS011;59159;51.652;4.864;2023-04-01T01:34:54;3.00;;;1.00;;
71351;SDS011;59159;51.652;4.864;2023-04-01T01:37:23;3.57;;;0.57;;
71351;SDS011;59159;51.652;4.864;2023-04-01T01:39:53;3.28;;;0.70;;
71351;SDS011;59159;51.652;4.864;2023-04-01T01:42:20;3.47;;;0.60;;
71351;SDS011;59159;51.652;4.864;2023-04-01T01:44:46;1.83;;;0.63;;
71351;SDS011;59159;51.652;4.864;2023-04-01T01:47:14;2.65;;;0.60;;
71351;SDS011;59159;51.652;4.864;2023-04-01T01:49:41;3.00;;;0.70;;
71351;SDS011;59159;51.652;4.864;2023-04-01T01:52:07;1.90;;;0.50;;
71351;SDS011;59159;51.652;4.864;2023-04-01T01:54:33;2.07;;;0.50;;
71351;SDS011;59159;51.652;4.864;2023-04-01T01:57:07;3.47;;;0.73;;
71351;SDS011;59159;51.652;4.864;2023-04-01T01:59:35;2.95;;;0.60;;
71351;SDS011;59159;51.652;4.864;2023-04-01T02:02:04;3.57;;;0.60;;
71351;SDS011;59159;51.652;4.864;2023-04-01T02:04:34;3.38;;;0.73;;
71351;SDS011;59159;51.652;4.864;2023-04-01T02:07:02;3.28;;;0.70;;
71351;SDS011;59159;51.652;4.864;2023-04-01T02:09:29;2.57;;;0.60;;
71351;SDS011;59159;51.652;4.864;2023-04-01T02:12:05;3.70;;;0.70;;
71351;SDS011;59159;51.652;4.864;2023-04-01T02:14:37;2.90;;;0.63;;
71351;SDS011;59159;51.652;4.864;2023-04-01T02:17:09;4.50;;;0.90;;
71351;SDS011;59159;51.652;4.864;2023-04-01T02:19:38;1.87;;;0.50;;
71351;SDS011;59159;51.652;4.864;2023-04-01T02:22:05;2.92;;;0.80;;
71351;SDS011;59159;51.652;4.864;2023-04-01T02:24:33;2.50;;;0.52;;
71351;SDS011;59159;51.652;4.864;2023-04-01T02:27:01;2.27;;;0.60;;
71351;SDS011;59159;51.652;4.864;2023-04-01T02:29:27;2.95;;;0.60;;
71351;SDS011;59159;51.652;4.864;2023-04-01T02:31:53;2.55;;;0.50;;
71351;SDS011;59159;51.652;4.864;2023-04-01T02:34:20;3.83;;;0.80;;
71351;SDS011;59159;51.652;4.864;2023-04-01T02:36:47;2.03;;;0.40;;
71351;SDS011;59159;51.652;4.864;2023-04-01T02:39:13;3.55;;;1.02;;
71351;SDS011;59159;51.652;4.864;2023-04-01T02:41:40;3.17;;;0.80;;
71351;SDS011;59159;51.652;4.864;2023-04-01T02:44:06;3.13;;;0.73;;
71351;SDS011;59159;51.652;4.864;2023-04-01T02:46:33;2.72;;;0.60;;
71351;SDS011;59159;51.652;4.864;2023-04-01T02:48:59;3.88;;;0.70;;
71351;SDS011;59159;51.652;4.864;2023-04-01T02:51:25;3.10;;;0.50;;
71351;SDS011;59159;51.652;4.864;2023-04-01T02:53:51;2.67;;;0.60;;
71351;SDS011;59159;51.652;4.864;2023-04-01T02:56:17;2.63;;;0.57;;
71351;SDS011;59159;51.652;4.864;2023-04-01T02:58:44;2.47;;;0.60;;
71351;SDS011;59159;51.652;4.864;2023-04-01T03:01:10;3.15;;;0.60;;
71351;SDS011;59159;51.652;4.864;2023-04-01T03:03:37;3.53;;;0.77;;
71351;SDS011;59159;51.652;4.864;2023-04-01T03:06:04;3.03;;;0.60;;
71351;SDS011;59159;51.652;4.864;2023-04-01T03:08:30;3.00;;;0.80;;
71351;SDS011;59159;51.652;4.864;2023-04-01T03:10:56;2.10;;;0.57;;
71351;SDS011;59159;51.652;4.864;2023-04-01T03:13:22;2.67;;;0.50;;
71351;SDS011;59159;51.652;4.864;2023-04-01T03:15:48;2.97;;;0.50;;
71351;SDS011;59159;51.652;4.864;2023-04-01T03:18:14;3.03;;;0.70;;
71351;SDS011;59159;51.652;4.864;2023-04-01T03:20:40;2.38;;;0.57;;
71351;SDS011;59159;51.652;4.864;2023-04-01T03:23:07;2.23;;;0.60;;
71351;SDS011;59159;51.652;4.864;2023-04-01T03:25:33;3.42;;;0.80;;
71351;SDS011;59159;51.652;4.864;2023-04-01T03:27:59;4.50;;;0.73;;
71351;SDS011;59159;51.652;4.864;2023-04-01T03:30:25;2.42;;;0.60;;
71351;SDS011;59159;51.652;4.864;2023-04-01T03:32:51;2.37;;;0.50;;
71351;SDS011;59159;51.652;4.864;2023-04-01T03:35:18;1.90;;;0.60;;
71351;SDS011;59159;51.652;4.864;2023-04-01T03:37:44;2.97;;;0.70;;
71351;SDS011;59159;51.652;4.864;2023-04-01T03:40:10;2.70;;;0.73;;
71351;SDS011;59159;51.652;4.864;2023-04-01T03:42:36;2.08;;;0.60;;
71351;SDS011;59159;51.652;4.864;2023-04-01T03:45:02;2.83;;;1.00;;
71351;SDS011;59159;51.652;4.864;2023-04-01T03:47:28;2.80;;;0.70;;
71351;SDS011;59159;51.652;4.864;2023-04-01T03:49:54;2.53;;;0.70;;
71351;SDS011;59159;51.652;4.864;2023-04-01T03:52:20;2.00;;;0.50;;
71351;SDS011;59159;51.652;4.864;2023-04-01T03:54:46;2.83;;;0.60;;
71351;SDS011;59159;51.652;4.864;2023-04-01T03:57:12;1.80;;;0.53;;
71351;SDS011;59159;51.652;4.864;2023-04-01T03:59:39;3.42;;;0.55;;
71351;SDS011;59159;51.652;4.864;2023-04-01T04:02:05;3.28;;;0.60;;
71351;SDS011;59159;51.652;4.864;2023-04-01T04:04:31;2.40;;;0.70;;
71351;SDS011;59159;51.652;4.864;2023-04-01T04:06:57;3.47;;;0.65;;
71351;SDS011;59159;51.652;4.864;2023-04-01T04:09:23;2.90;;;0.60;;
71351;SDS011;59159;51.652;4.864;2023-04-01T04:11:49;2.10;;;0.53;;
71351;SDS011;59159;51.652;4.864;2023-04-01T04:14:15;3.05;;;0.60;;
71351;SDS011;59159;51.652;4.864;2023-04-01T04:16:41;2.17;;;0.60;;
71351;SDS011;59159;51.652;4.864;2023-04-01T04:19:07;3.25;;;0.80;;
71351;SDS011;59159;51.652;4.864;2023-04-01T04:21:33;2.23;;;0.50;;
71351;SDS011;59159;51.652;4.864;2023-04-01T04:24:01;3.22;;;0.75;;
71351;SDS011;59159;51.652;4.864;2023-04-01T04:26:27;2.28;;;0.80;;
71351;SDS011;59159;51.652;4.864;2023-04-01T04:28:53;4.10;;;0.80;;
71351;SDS011;59159;51.652;4.864;2023-04-01T04:31:21;1.35;;;0.45;;
71351;SDS011;59159;51.652;4.864;2023-04-01T04:33:47;2.25;;;0.57;;
71351;SDS011;59159;51.652;4.864;2023-04-01T04:36:13;3.07;;;0.60;;
71351;SDS011;59159;51.652;4.864;2023-04-01T04:38:39;2.85;;;0.70;;
71351;SDS011;59159;51.652;4.864;2023-04-01T04:41:12;2.05;;;0.60;;
71351;SDS011;59159;51.652;4.864;2023-04-01T04:43:39;2.63;;;0.50;;
71351;SDS011;59159;51.652;4.864;2023-04-01T04:46:06;2.80;;;0.67;;
71351;SDS011;59159;51.652;4.864;2023-04-01T04:48:32;3.78;;;0.60;;
71351;SDS011;59159;51.652;4.864;2023-04-01T04:50:59;2.88;;;0.50;;
71351;SDS011;59159;51.652;4.864;2023-04-01T04:53:25;2.20;;;0.63;;
71351;SDS011;59159;51.652;4.864;2023-04-01T04:55:51;2.47;;;0.60;;
71351;SDS011;59159;51.652;4.864;2023-04-01T04:58:17;3.75;;;0.70;;
71351;SDS011;59159;51.652;4.864;2023-04-01T05:00:43;3.20;;;0.70;;
71351;SDS011;59159;51.652;4.864;2023-04-01T05:03:10;1.80;;;0.60;;
71351;SDS011;59159;51.652;4.864;2023-04-01T05:05:36;2.83;;;0.65;;
71351;SDS011;59159;51.652;4.864;2023-04-01T05:08:03;3.22;;;0.80;;
71351;SDS011;59159;51.652;4.864;2023-04-01T05:10:29;2.20;;;0.57;;
71351;SDS011;59159;51.652;4.864;2023-04-01T05:12:56;2.03;;;0.60;;
71351;SDS011;59159;51.652;4.864;2023-04-01T05:15:22;2.97;;;0.60;;
71351;SDS011;59159;51.652;4.864;2023-04-01T05:17:48;2.77;;;0.80;;
71351;SDS011;59159;51.652;4.864;2023-04-01T05:20:15;1.55;;;0.50;;
71351;SDS011;59159;51.652;4.864;2023-04-01T05:22:41;2.35;;;0.63;;
71351;SDS011;59159;51.652;4.864;2023-04-01T05:25:07;2.87;;;0.97;;
71351;SDS011;59159;51.652;4.864;2023-04-01T05:27:33;3.85;;;0.93;;
71351;SDS011;59159;51.652;4.864;2023-04-01T05:29:59;2.92;;;0.73;;
71351;SDS011;59159;51.652;4.864;2023-04-01T05:32:25;5.05;;;0.85;;
71351;SDS011;59159;51.652;4.864;2023-04-01T05:34:51;2.43;;;0.80;;
71351;SDS011;59159;51.652;4.864;2023-04-01T05:37:18;2.42;;;0.70;;
71351;SDS011;59159;51.652;4.864;2023-04-01T05:39:44;3.75;;;0.88;;
71351;SDS011;59159;51.652;4.864;2023-04-01T05:42:10;4.13;;;0.90;;
71351;SDS011;59159;51.652;4.864;2023-04-01T05:44:36;2.40;;;0.68;;
71351;SDS011;59159;51.652;4.864;2023-04-01T05:47:03;2.53;;;0.60;;
71351;SDS011;59159;51.652;4.864;2023-04-01T05:49:29;3.63;;;0.90;;
71351;SDS011;59159;51.652;4.864;2023-04-01T05:51:55;3.47;;;0.90;;
71351;SDS011;59159;51.652;4.864;2023-04-01T05:54:22;5.00;;;1.00;;
71351;SDS011;59159;51.652;4.864;2023-04-01T05:56:48;3.85;;;0.70;;
71351;SDS011;59159;51.652;4.864;2023-04-01T05:59:14;2.33;;;0.63;;
71351;SDS011;59159;51.652;4.864;2023-04-01T06:01:40;3.40;;;0.90;;
71351;SDS011;59159;51.652;4.864;2023-04-01T06:04:06;3.38;;;0.73;;
71351;SDS011;59159;51.652;4.864;2023-04-01T06:06:32;2.83;;;0.67;;
71351;SDS011;59159;51.652;4.864;2023-04-01T06:09:04;3.08;;;0.80;;
71351;SDS011;59159;51.652;4.864;2023-04-01T06:11:37;3.40;;;0.82;;
71351;SDS011;59159;51.652;4.864;2023-04-01T06:27:02;4.63;;;1.13;;
71351;SDS011;59159;51.652;4.864;2023-04-01T06:52:38;8.88;;;1.58;;
71351;SDS011;59159;51.652;4.864;2023-04-01T06:55:16;6.40;;;1.50;;
71351;SDS011;59159;51.652;4.864;2023-04-01T06:57:44;5.43;;;1.90;;
71351;SDS011;59159;51.652;4.864;2023-04-01T07:00:13;6.25;;;1.85;;
71351;SDS011;59159;51.652;4.864;2023-04-01T07:02:45;8.90;;;1.80;;
71351;SDS011;59159;51.652;4.864;2023-04-01T07:05:13;6.27;;;1.70;;
71351;SDS011;59159;51.652;4.864;2023-04-01T07:07:43;6.63;;;1.85;;
71351;SDS011;59159;51.652;4.864;2023-04-01T07:10:13;5.50;;;1.70;;
71351;SDS011;59159;51.652;4.864;2023-04-01T07:12:43;6.05;;;1.63;;
71351;SDS011;59159;51.652;4.864;2023-04-01T07:15:13;5.00;;;1.33;;
71351;SDS011;59159;51.652;4.864;2023-04-01T07:17:41;5.82;;;1.58;;
71351;SDS011;59159;51.652;4.864;2023-04-01T07:20:25;5.75;;;1.60;;
71351;SDS011;59159;51.652;4.864;2023-04-01T07:22:54;4.80;;;1.57;;
71351;SDS011;59159;51.652;4.864;2023-04-01T07:25:26;5.32;;;1.27;;
71351;SDS011;59159;51.652;4.864;2023-04-01T07:27:54;6.88;;;1.52;;
71351;SDS011;59159;51.652;4.864;2023-04-01T07:30:22;4.93;;;1.10;;
71351;SDS011;59159;51.652;4.864;2023-04-01T07:35:36;5.35;;;1.20;;
71351;SDS011;59159;51.652;4.864;2023-04-01T07:38:20;6.35;;;1.30;;
71351;SDS011;59159;51.652;4.864;2023-04-01T07:40:55;5.90;;;1.67;;
71351;SDS011;59159;51.652;4.864;2023-04-01T07:43:34;5.03;;;1.27;;
71351;SDS011;59159;51.652;4.864;2023-04-01T07:51:17;5.32;;;1.40;;
71351;SDS011;59159;51.652;4.864;2023-04-01T07:53:57;5.90;;;1.17;;
71351;SDS011;59159;51.652;4.864;2023-04-01T08:05:00;4.50;;;1.00;;
71351;SDS011;59159;51.652;4.864;2023-04-01T08:07:44;5.10;;;1.53;;
71351;SDS011;59159;51.652;4.864;2023-04-01T08:15:13;3.63;;;0.90;;
71351;SDS011;59159;51.652;4.864;2023-04-01T08:20:23;5.90;;;1.15;;
71351;SDS011;59159;51.652;4.864;2023-04-01T08:22:59;5.77;;;1.47;;
71351;SDS011;59159;51.652;4.864;2023-04-01T08:25:28;5.53;;;1.40;;
71351;SDS011;59159;51.652;4.864;2023-04-01T08:27:56;4.72;;;1.30;;
71351;SDS011;59159;51.652;4.864;2023-04-01T08:30:26;5.50;;;1.55;;
71351;SDS011;59159;51.652;4.864;2023-04-01T08:32:57;4.50;;;1.20;;
71351;SDS011;59159;51.652;4.864;2023-04-01T08:37:51;4.38;;;1.10;;
71351;SDS011;59159;51.652;4.864;2023-04-01T08:40:39;5.40;;;1.40;;
71351;SDS011;59159;51.652;4.864;2023-04-01T08:43:16;4.95;;;1.10;;
71351;SDS011;59159;51.652;4.864;2023-04-01T08:46:03;5.47;;;1.85;;
71351;SDS011;59159;51.652;4.864;2023-04-01T08:51:21;5.40;;;1.60;;
71351;SDS011;59159;51.652;4.864;2023-04-01T08:56:42;5.50;;;1.45;;
71351;SDS011;59159;51.652;4.864;2023-04-01T09:07:28;4.60;;;1.30;;
71351;SDS011;59159;51.652;4.864;2023-04-01T09:18:32;6.82;;;1.30;;
71351;SDS011;59159;51.652;4.864;2023-04-01T09:23:17;4.60;;;1.60;;
71351;SDS011;59159;51.652;4.864;2023-04-01T09:25:50;5.83;;;1.43;;
71351;SDS011;59159;51.652;4.864;2023-04-01T09:38:59;3.83;;;1.10;;
71351;SDS011;59159;51.652;4.864;2023-04-01T10:02:04;3.95;;;1.00;;
71351;SDS011;59159;51.652;4.864;2023-04-01T10:09:51;5.78;;;1.40;;
71351;SDS011;59159;51.652;4.864;2023-04-01T10:17:56;4.47;;;1.20;;
71351;SDS011;59159;51.652;4.864;2023-04-01T10:22:59;4.55;;;1.58;;
71351;SDS011;59159;51.652;4.864;2023-04-01T10:25:41;4.83;;;1.10;;
71351;SDS011;59159;51.652;4.864;2023-04-01T10:28:22;4.68;;;1.35;;
71351;SDS011;59159;51.652;4.864;2023-04-01T10:31:14;4.45;;;1.35;;
71351;SDS011;59159;51.652;4.864;2023-04-01T10:44:18;4.70;;;1.40;;
71351;SDS011;59159;51.652;4.864;2023-04-01T10:57:44;5.85;;;1.30;;
71351;SDS011;59159;51.652;4.864;2023-04-01T11:00:18;5.50;;;1.33;;
71351;SDS011;59159;51.652;4.864;2023-04-01T11:05:34;5.10;;;1.67;;
71351;SDS011;59159;51.652;4.864;2023-04-01T11:13:47;3.83;;;1.10;;
71351;SDS011;59159;51.652;4.864;2023-04-01T11:26:57;5.07;;;1.63;;
71351;SDS011;59159;51.652;4.864;2023-04-01T11:34:43;4.82;;;1.20;;
71351;SDS011;59159;51.652;4.864;2023-04-01T11:44:36;5.83;;;1.37;;
71351;SDS011;59159;51.652;4.864;2023-04-01T11:52:42;5.97;;;1.63;;
71351;SDS011;59159;51.652;4.864;2023-04-01T12:13:28;5.25;;;1.58;;
71351;SDS011;59159;51.652;4.864;2023-04-01T12:16:19;4.32;;;1.40;;
71351;SDS011;59159;51.652;4.864;2023-04-01T12:21:25;4.78;;;1.13;;
71351;SDS011;59159;51.652;4.864;2023-04-01T12:24:03;3.80;;;1.20;;
71351;SDS011;59159;51.652;4.864;2023-04-01T12:26:53;3.78;;;1.10;;
71351;SDS011;59159;51.652;4.864;2023-04-01T12:50:24;4.55;;;1.40;;
71351;SDS011;59159;51.652;4.864;2023-04-01T12:55:40;3.33;;;1.13;;
71351;SDS011;59159;51.652;4.864;2023-04-01T13:00:53;4.05;;;1.35;;
71351;SDS011;59159;51.652;4.864;2023-04-01T13:06:20;4.97;;;1.30;;
71351;SDS011;59159;51.652;4.864;2023-04-01T13:09:07;4.55;;;1.40;;
71351;SDS011;59159;51.652;4.864;2023-04-01T13:16:56;5.43;;;1.60;;
71351;SDS011;59159;51.652;4.864;2023-04-01T13:21:52;5.10;;;1.50;;
71351;SDS011;59159;51.652;4.864;2023-04-01T13:27:14;6.35;;;1.60;;
71351;SDS011;59159;51.652;4.864;2023-04-01T13:32:18;4.30;;;1.40;;
71351;SDS011;59159;51.652;4.864;2023-04-01T13:42:28;4.55;;;1.20;;
71351;SDS011;59159;51.652;4.864;2023-04-01T13:45:00;6.07;;;1.85;;
71351;SDS011;59159;51.652;4.864;2023-04-01T13:55:24;7.07;;;2.17;;
71351;SDS011;59159;51.652;4.864;2023-04-01T13:57:55;5.20;;;1.80;;
71351;SDS011;59159;51.652;4.864;2023-04-01T14:08:20;4.50;;;1.40;;
71351;SDS011;59159;51.652;4.864;2023-04-01T14:13:37;5.40;;;1.90;;
71351;SDS011;59159;51.652;4.864;2023-04-01T14:16:11;6.32;;;1.70;;
71351;SDS011;59159;51.652;4.864;2023-04-01T14:26:26;5.20;;;1.60;;
71351;SDS011;59159;51.652;4.864;2023-04-01T14:31:52;5.05;;;1.70;;
71351;SDS011;59159;51.652;4.864;2023-04-01T14:34:25;5.00;;;1.50;;
71351;SDS011;59159;51.652;4.864;2023-04-01T14:47:54;5.93;;;1.80;;
71351;SDS011;59159;51.652;4.864;2023-04-01T14:50:22;4.50;;;1.40;;
71351;SDS011;59159;51.652;4.864;2023-04-01T14:52:56;5.00;;;1.63;;
71351;SDS011;59159;51.652;4.864;2023-04-01T14:58:15;4.68;;;1.40;;
71351;SDS011;59159;51.652;4.864;2023-04-01T15:00:47;5.05;;;1.50;;
71351;SDS011;59159;51.652;4.864;2023-04-01T15:03:24;5.07;;;1.45;;
71351;SDS011;59159;51.652;4.864;2023-04-01T15:05:55;5.13;;;1.40;;
71351;SDS011;59159;51.652;4.864;2023-04-01T15:08:29;4.63;;;1.58;;
71351;SDS011;59159;51.652;4.864;2023-04-01T15:11:01;4.75;;;1.45;;
71351;SDS011;59159;51.652;4.864;2023-04-01T15:21:33;4.93;;;1.30;;
71351;SDS011;59159;51.652;4.864;2023-04-01T15:50:36;4.00;;;1.15;;
71351;SDS011;59159;51.652;4.864;2023-04-01T15:55:57;4.90;;;1.48;;
71351;SDS011;59159;51.652;4.864;2023-04-01T16:03:36;4.80;;;1.50;;
71351;SDS011;59159;51.652;4.864;2023-04-01T16:08:49;5.85;;;1.55;;
71351;SDS011;59159;51.652;4.864;2023-04-01T16:16:43;5.70;;;1.52;;
71351;SDS011;59159;51.652;4.864;2023-04-01T16:21:47;6.43;;;1.30;;
71351;SDS011;59159;51.652;4.864;2023-04-01T16:24:31;6.23;;;2.20;;
71351;SDS011;59159;51.652;4.864;2023-04-01T16:32:27;5.40;;;1.43;;
71351;SDS011;59159;51.652;4.864;2023-04-01T16:37:49;4.25;;;1.20;;
71351;SDS011;59159;51.652;4.864;2023-04-01T16:40:22;4.93;;;1.30;;
71351;SDS011;59159;51.652;4.864;2023-04-01T16:42:53;5.25;;;1.20;;
71351;SDS011;59159;51.652;4.864;2023-04-01T16:50:23;4.17;;;1.10;;
71351;SDS011;59159;51.652;4.864;2023-04-01T16:52:59;4.50;;;1.25;;
71351;SDS011;59159;51.652;4.864;2023-04-01T16:55:41;4.78;;;1.10;;
71351;SDS011;59159;51.652;4.864;2023-04-01T16:58:10;5.53;;;1.40;;
71351;SDS011;59159;51.652;4.864;2023-04-01T17:00:41;5.20;;;1.60;;
71351;SDS011;59159;51.652;4.864;2023-04-01T17:10:47;4.45;;;1.08;;
71351;SDS011;59159;51.652;4.864;2023-04-01T17:15:51;4.17;;;1.07;;
71351;SDS011;59159;51.652;4.864;2023-04-01T17:21:07;5.20;;;1.10;;
71351;SDS011;59159;51.652;4.864;2023-04-01T17:24:00;3.37;;;1.03;;
71351;SDS011;59159;51.652;4.864;2023-04-01T17:29:23;4.43;;;1.17;;
71351;SDS011;59159;51.652;4.864;2023-04-01T17:32:08;3.77;;;0.97;;
71351;SDS011;59159;51.652;4.864;2023-04-01T17:40:21;3.17;;;0.90;;
71351;SDS011;59159;51.652;4.864;2023-04-01T17:43:12;3.47;;;0.97;;
71351;SDS011;59159;51.652;4.864;2023-04-01T17:45:54;4.00;;;0.95;;
71351;SDS011;59159;51.652;4.864;2023-04-01T17:58:18;3.37;;;0.97;;
71351;SDS011;59159;51.652;4.864;2023-04-01T18:06:17;5.05;;;1.13;;
71351;SDS011;59159;51.652;4.864;2023-04-01T18:14:17;3.45;;;0.93;;
71351;SDS011;59159;51.652;4.864;2023-04-01T18:17:01;4.50;;;0.93;;
71351;SDS011;59159;51.652;4.864;2023-04-01T18:22:21;3.63;;;1.00;;
71351;SDS011;59159;51.652;4.864;2023-04-01T18:24:56;3.83;;;0.90;;
71351;SDS011;59159;51.652;4.864;2023-04-01T18:27:24;3.70;;;0.97;;
71351;SDS011;59159;51.652;4.864;2023-04-01T18:29:58;2.22;;;0.70;;
71351;SDS011;59159;51.652;4.864;2023-04-01T18:32:37;4.40;;;1.13;;
71351;SDS011;59159;51.652;4.864;2023-04-01T18:38:04;5.20;;;1.10;;
71351;SDS011;59159;51.652;4.864;2023-04-01T18:40:34;4.38;;;1.02;;
71351;SDS011;59159;51.652;4.864;2023-04-01T18:50:59;3.32;;;0.96;;
71351;SDS011;59159;51.652;4.864;2023-04-01T18:53:35;2.43;;;0.95;;
71351;SDS011;59159;51.652;4.864;2023-04-01T18:56:05;3.38;;;0.90;;
71351;SDS011;59159;51.652;4.864;2023-04-01T19:06:17;3.50;;;0.80;;
71351;SDS011;59159;51.652;4.864;2023-04-01T19:08:44;3.20;;;0.90;;
71351;SDS011;59159;51.652;4.864;2023-04-01T19:11:16;3.47;;;0.90;;
71351;SDS011;59159;51.652;4.864;2023-04-01T19:13:52;4.10;;;1.00;;
71351;SDS011;59159;51.652;4.864;2023-04-01T19:21:37;4.20;;;0.93;;
71351;SDS011;59159;51.652;4.864;2023-04-01T19:26:42;3.67;;;1.00;;
71351;SDS011;59159;51.652;4.864;2023-04-01T19:37:31;3.47;;;1.00;;
71351;SDS011;59159;51.652;4.864;2023-04-01T19:40:08;3.22;;;1.00;;
71351;SDS011;59159;51.652;4.864;2023-04-01T19:50:41;3.90;;;0.93;;
71351;SDS011;59159;51.652;4.864;2023-04-01T19:53:20;3.17;;;0.90;;
71351;SDS011;59159;51.652;4.864;2023-04-01T19:58:39;2.27;;;0.70;;
71351;SDS011;59159;51.652;4.864;2023-04-01T20:01:08;3.87;;;0.63;;
71351;SDS011;59159;51.652;4.864;2023-04-01T20:06:04;2.92;;;0.73;;
71351;SDS011;59159;51.652;4.864;2023-04-01T20:19:21;4.18;;;0.90;;
71351;SDS011;59159;51.652;4.864;2023-04-01T20:21:50;2.53;;;0.70;;
71351;SDS011;59159;51.652;4.864;2023-04-01T20:32:53;4.47;;;1.30;;
71351;SDS011;59159;51.652;4.864;2023-04-01T20:38:41;4.40;;;1.10;;
71351;SDS011;59159;51.652;4.864;2023-04-01T20:41:12;4.73;;;0.97;;
71351;SDS011;59159;51.652;4.864;2023-04-01T20:57:06;4.00;;;1.40;;
71351;SDS011;59159;51.652;4.864;2023-04-01T20:59:38;4.63;;;1.08;;
71351;SDS011;59159;51.652;4.864;2023-04-01T21:07:53;3.83;;;0.93;;
71351;SDS011;59159;51.652;4.864;2023-04-01T21:17:53;3.10;;;0.88;;
71351;SDS011;59159;51.652;4.864;2023-04-01T21:23:34;2.87;;;0.87;;
71351;SDS011;59159;51.652;4.864;2023-04-01T21:41:40;3.50;;;1.00;;
71351;SDS011;59159;51.652;4.864;2023-04-01T21:52:21;3.67;;;0.90;;
71351;SDS011;59159;51.652;4.864;2023-04-01T22:02:39;3.53;;;1.10;;
71351;SDS011;59159;51.652;4.864;2023-04-01T22:07:43;2.50;;;0.73;;
71351;SDS011;59159;51.652;4.864;2023-04-01T22:12:52;3.38;;;0.90;;
71351;SDS011;59159;51.652;4.864;2023-04-01T22:15:40;2.80;;;0.90;;
71351;SDS011;59159;51.652;4.864;2023-04-01T22:18:13;4.60;;;0.90;;
71351;SDS011;59159;51.652;4.864;2023-04-01T22:20:44;3.47;;;0.82;;
71351;SDS011;59159;51.652;4.864;2023-04-01T22:26:02;4.00;;;1.10;;
71351;SDS011;59159;51.652;4.864;2023-04-01T22:28:36;4.70;;;0.80;;
71351;SDS011;59159;51.652;4.864;2023-04-01T22:31:03;4.50;;;1.42;;
71351;SDS011;59159;51.652;4.864;2023-04-01T22:43:45;3.28;;;0.90;;
71351;SDS011;59159;51.652;4.864;2023-04-01T22:48:53;3.85;;;1.20;;
71351;SDS011;59159;51.652;4.864;2023-04-01T22:53:57;3.40;;;0.82;;
71351;SDS011;59159;51.652;4.864;2023-04-01T22:56:33;3.20;;;0.88;;
71351;SDS011;59159;51.652;4.864;2023-04-01T22:59:22;2.87;;;0.80;;
71351;SDS011;59159;51.652;4.864;2023-04-01T23:01:48;3.90;;;1.50;;
71351;SDS011;59159;51.652;4.864;2023-04-01T23:04:17;3.20;;;0.93;;
71351;SDS011;59159;51.652;4.864;2023-04-01T23:06:47;4.20;;;1.27;;
71351;SDS011;59159;51.652;4.864;2023-04-01T23:11:57;3.13;;;0.80;;
71351;SDS011;59159;51.652;4.864;2023-04-01T23:14:30;4.45;;;1.30;;
71351;SDS011;59159;51.652;4.864;2023-04-01T23:17:01;3.30;;;0.90;;
71351;SDS011;59159;51.652;4.864;2023-04-01T23:19:48;3.67;;;1.00;;
71351;SDS011;59159;51.652;4.864;2023-04-01T23:24:55;4.53;;;1.00;;
71351;SDS011;59159;51.652;4.864;2023-04-01T23:27:30;4.00;;;1.17;;
71351;SDS011;59159;51.652;4.864;2023-04-01T23:29:59;3.35;;;0.88;;
71351;SDS011;59159;51.652;4.864;2023-04-01T23:32:25;3.43;;;1.00;;
71351;SDS011;59159;51.652;4.864;2023-04-01T23:34:56;3.25;;;0.80;;
71351;SDS011;59159;51.652;4.864;2023-04-01T23:37:23;4.20;;;1.08;;
71351;SDS011;59159;51.652;4.864;2023-04-01T23:45:20;4.53;;;1.20;;
71351;SDS011;59159;51.652;4.864;2023-04-01T23:47:42;2.65;;;0.85;;
71351;SDS011;59159;51.652;4.864;2023-04-01T23:50:12;3.10;;;1.00;;
71351;SDS011;59159;51.652;4.864;2023-04-01T23:52:46;2.33;;;0.68;;
71351;SDS011;59159;51.652;4.864;2023-04-01T23:55:13;4.05;;;1.10;;
71351;SDS011;59159;51.652;4.864;2023-04-01T23:57:40;2.90;;;0.90;;
